Time;durP1;ratioP1;P1;durP2;ratioP2;P2;SDS_P1;SDS_P2;PMS_P1;PMS_P2;Temp;Humidity;BMP_temperature;BMP_pressure;BME280_temperature;BME280_humidity;BME280_pressure;Samples;Min_cycle;Max_cycle;Signal;HPM_P1;HPM_P2
2023/05/20 00:01:08;;;;;;;3.40;1.58;;;;;;;13.12;55.07;150587.06;5025406;28;20029;-63
2023/05/20 00:03:34;;;;;;;2.67;1.60;;;;;;;13.06;55.25;150570.34;5025255;28;20053;-64
2023/05/20 00:05:59;;;;;;;2.42;1.50;;;;;;;13.17;53.71;150597.28;5035995;28;20330;-63
2023/05/20 00:08:25;;;;;;;2.92;1.42;;;;;;;13.11;54.66;150584.47;5035450;28;20030;-64
2023/05/20 00:10:50;;;;;;;3.50;1.52;;;;;;;12.98;54.86;150549.75;5039580;28;20199;-64
2023/05/20 00:13:16;;;;;;;3.03;1.40;;;;;;;12.98;55.55;150549.75;5023271;28;20022;-65
2023/05/20 00:15:42;;;;;;;1.48;1.20;;;;;;;12.92;55.43;150536.91;5023122;28;20030;-65
2023/05/20 00:18:07;;;;;;;4.00;1.73;;;;;;;13.03;55.35;150562.63;5037228;28;20356;-65
2023/05/20 00:20:33;;;;;;;4.10;1.52;;;;;;;13.06;55.86;150570.34;5033687;28;20026;-65
2023/05/20 00:22:58;;;;;;;3.78;1.55;;;;;;;13.01;55.03;150557.47;5027698;28;20052;-65
2023/05/20 00:25:24;;;;;;;1.50;1.10;;;;;;;12.99;55.64;150552.34;5042742;28;20022;-64
2023/05/20 00:27:50;;;;;;;1.48;1.25;;;;;;;12.97;55.69;150548.50;5023331;28;20056;-64
2023/05/20 00:30:15;;;;;;;1.50;1.38;;;;;;;13.03;55.76;150562.63;5037861;28;20048;-65
2023/05/20 00:32:41;;;;;;;1.42;1.33;;;;;;;12.95;55.71;150544.66;5032697;28;20042;-65
2023/05/20 00:35:08;;;;;;;4.57;1.35;;;;;;;12.96;56.49;150545.91;5028350;28;20029;-65
2023/05/20 00:37:33;;;;;;;2.60;1.30;;;;;;;12.86;56.17;150521.50;5041711;28;20230;-64
2023/05/20 00:39:59;;;;;;;2.25;1.10;;;;;;;12.91;55.80;150533.06;5032468;28;20092;-65
2023/05/20 00:42:27;;;;;;;2.55;1.27;;;;;;;12.88;56.57;150526.66;5030500;28;20025;-63
2023/05/20 00:44:53;;;;;;;3.33;1.35;;;;;;;12.87;56.81;150524.06;5009210;28;20274;-65
2023/05/20 00:47:24;;;;;;;2.25;1.38;;;;;;;12.90;56.16;150531.78;5033676;28;20038;-64
2023/05/20 00:49:50;;;;;;;1.85;1.10;;;;;;;12.91;56.46;150534.38;5043148;28;20045;-65
2023/05/20 00:52:17;;;;;;;1.75;1.50;;;;;;;12.72;56.95;150485.53;5033647;28;20033;-63
2023/05/20 00:54:44;;;;;;;1.95;1.20;;;;;;;12.84;57.18;150515.06;5046515;28;20036;-64
2023/05/20 00:57:10;;;;;;;1.77;1.20;;;;;;;12.88;56.43;150526.66;5032037;28;20060;-62
2023/05/20 00:59:37;;;;;;;2.03;1.40;;;;;;;12.78;58.19;150502.25;5035600;28;20048;-66
2023/05/20 01:02:06;;;;;;;4.55;1.27;;;;;;;12.81;57.29;150508.63;5041204;28;20029;-68
2023/05/20 01:04:32;;;;;;;3.20;1.75;;;;;;;12.81;58.28;150508.63;5025431;28;20025;-66
2023/05/20 01:07:03;;;;;;;1.83;1.30;;;;;;;12.77;57.16;150498.41;5028752;28;20091;-64
2023/05/20 01:09:30;;;;;;;2.25;1.55;;;;;;;12.73;57.09;150488.13;5029662;28;20314;-67
2023/05/20 01:12:12;;;;;;;2.97;1.35;;;;;;;12.69;57.29;150479.09;5037951;28;20049;-67
2023/05/20 01:14:45;;;;;;;2.63;1.30;;;;;;;12.62;57.28;150461.13;5036637;28;20030;-66
2023/05/20 01:17:16;;;;;;;3.60;1.30;;;;;;;12.71;58.06;150484.28;5031832;28;20451;-64
2023/05/20 01:19:43;;;;;;;3.17;1.50;;;;;;;12.71;56.92;150482.94;5044103;28;20430;-65
2023/05/20 01:22:11;;;;;;;1.20;1.10;;;;;;;12.73;57.71;150488.13;5024624;28;20021;-64
2023/05/20 01:24:41;;;;;;;2.00;1.30;;;;;;;12.67;58.63;150474.00;5043544;28;20068;-65
2023/05/20 01:27:12;;;;;;;1.77;1.30;;;;;;;12.59;58.13;150454.69;5032205;28;20025;-64
2023/05/20 01:29:39;;;;;;;2.90;1.20;;;;;;;12.72;57.95;150486.81;5035071;28;20025;-63
2023/05/20 01:32:29;;;;;;;1.23;1.13;;;;;;;12.68;58.90;150476.53;5040834;28;20049;-64
2023/05/20 01:34:56;;;;;;;2.53;1.30;;;;;;;12.68;58.81;150475.25;5028918;28;20334;-64
2023/05/20 01:37:24;;;;;;;1.55;1.38;;;;;;;12.63;58.32;150463.72;5045204;28;20032;-64
2023/05/20 01:39:50;;;;;;;3.75;1.30;;;;;;;12.56;59.07;150445.72;5032381;28;20287;-62
2023/05/20 01:42:17;;;;;;;2.92;1.23;;;;;;;12.58;59.29;150450.84;5030553;28;20048;-64
2023/05/20 01:44:42;;;;;;;3.47;1.48;;;;;;;12.64;58.94;150466.28;5035180;28;20029;-65
2023/05/20 01:47:08;;;;;;;3.92;1.20;;;;;;;12.64;58.40;150466.28;5024055;28;20093;-65
2023/05/20 01:49:34;;;;;;;2.15;1.10;;;;;;;12.63;59.49;150463.72;5025426;28;20369;-66
2023/05/20 01:52:00;;;;;;;1.58;1.27;;;;;;;12.58;59.43;150450.84;5029715;28;20025;-66
2023/05/20 01:54:25;;;;;;;2.45;1.27;;;;;;;12.67;59.55;150472.66;5045140;28;20032;-66
2023/05/20 01:56:51;;;;;;;8.55;1.45;;;;;;;12.60;59.62;150457.28;5034234;28;20026;-66
2023/05/20 01:59:17;;;;;;;3.03;1.10;;;;;;;12.66;59.80;150470.13;5031175;28;20214;-65
2023/05/20 02:01:42;;;;;;;3.60;1.40;;;;;;;12.70;60.22;150480.41;5043408;28;20088;-65
2023/05/20 02:04:08;;;;;;;2.08;1.30;;;;;;;12.42;59.82;150411.03;5024887;28;20245;-66
2023/05/20 02:06:34;;;;;;;1.38;1.13;;;;;;;12.55;60.77;150444.41;5041298;28;20396;-64
2023/05/20 02:08:59;;;;;;;3.30;1.70;;;;;;;12.60;60.00;150456.00;5032765;28;20033;-63
2023/05/20 02:11:25;;;;;;;1.75;1.10;;;;;;;12.45;60.09;150418.72;5032084;28;20029;-65
2023/05/20 02:13:51;;;;;;;1.45;1.20;;;;;;;12.43;60.83;150413.63;5042142;28;20067;-64
2023/05/20 02:16:17;;;;;;;2.88;1.08;;;;;;;12.49;60.80;150427.75;5024715;28;20030;-64
2023/05/20 02:18:42;;;;;;;2.15;0.90;;;;;;;12.60;60.39;150457.28;5042533;28;20029;-64
2023/05/20 02:21:08;;;;;;;2.75;1.95;;;;;;;12.42;61.19;150411.03;5043945;28;20251;-64
2023/05/20 02:23:34;;;;;;;1.95;1.23;;;;;;;12.34;61.88;150391.78;5036090;28;20057;-64
2023/05/20 02:26:00;;;;;;;1.35;1.20;;;;;;;12.40;61.09;150407.19;5024433;28;20068;-65
2023/05/20 02:28:26;;;;;;;2.50;1.25;;;;;;;12.40;61.46;150405.94;5024645;28;20033;-65
2023/05/20 02:30:52;;;;;;;2.03;1.15;;;;;;;12.18;62.46;150351.94;5043226;28;20101;-65
2023/05/20 02:33:18;;;;;;;1.33;1.00;;;;;;;12.36;62.33;150395.66;5029980;28;20026;-65
2023/05/20 02:35:44;;;;;;;1.40;1.20;;;;;;;12.49;62.47;150427.75;5033935;28;20025;-66
2023/05/20 02:38:12;;;;;;;1.10;1.00;;;;;;;12.36;62.54;150395.66;5039314;28;20033;-66
2023/05/20 02:40:38;;;;;;;2.20;1.33;;;;;;;12.43;61.84;150413.63;5036294;28;20025;-66
2023/05/20 02:43:04;;;;;;;1.98;1.00;;;;;;;12.39;62.64;150403.34;5024509;28;20330;-66
2023/05/20 02:45:30;;;;;;;1.40;1.30;;;;;;;12.42;62.52;150411.03;5024355;28;20036;-65
2023/05/20 02:47:55;;;;;;;1.25;1.10;;;;;;;12.39;62.39;150403.34;5035237;28;20038;-65
2023/05/20 02:50:21;;;;;;;1.85;1.17;;;;;;;12.34;62.57;150391.78;5037585;28;20038;-65
2023/05/20 02:52:47;;;;;;;1.23;1.00;;;;;;;12.40;63.05;150407.19;5046989;28;20059;-65
2023/05/20 02:55:13;;;;;;;2.42;1.20;;;;;;;12.37;62.75;150398.19;5063910;28;20028;-64
2023/05/20 02:57:39;;;;;;;1.77;1.50;;;;;;;12.42;63.75;150412.31;5046831;28;20290;-66
2023/05/20 03:00:12;;;;;;;1.40;1.05;;;;;;;12.39;63.52;150403.34;5031748;28;20030;-65
2023/05/20 03:02:38;;;;;;;1.60;1.40;;;;;;;12.30;63.23;150380.19;5023716;28;20037;-65
2023/05/20 03:05:04;;;;;;;1.67;1.02;;;;;;;12.33;63.35;150387.94;5027412;28;20029;-65
2023/05/20 03:07:30;;;;;;;1.20;1.10;;;;;;;12.37;63.09;150399.50;5043542;28;20035;-66
2023/05/20 03:09:57;;;;;;;2.47;1.08;;;;;;;12.37;63.74;150398.19;5024603;28;20084;-65
2023/05/20 03:12:25;;;;;;;1.17;1.00;;;;;;;12.34;64.22;150390.47;5023653;28;20330;-65
2023/05/20 03:14:54;;;;;;;2.42;1.00;;;;;;;12.44;63.49;150416.16;5033864;28;20103;-66
2023/05/20 03:17:22;;;;;;;1.75;1.20;;;;;;;12.46;63.38;150420.06;5037367;28;20061;-65
2023/05/20 03:19:48;;;;;;;1.67;1.10;;;;;;;12.47;63.38;150423.91;5025099;28;20033;-65
2023/05/20 03:22:13;;;;;;;1.80;1.30;;;;;;;12.55;63.42;150443.16;5043051;28;20067;-65
2023/05/20 03:24:39;;;;;;;3.65;1.50;;;;;;;12.42;64.26;150412.31;5026928;28;20198;-67
2023/05/20 03:27:05;;;;;;;1.75;1.30;;;;;;;12.45;64.04;150418.72;5035441;28;20325;-67
2023/05/20 03:29:32;;;;;;;1.30;1.20;;;;;;;12.47;64.30;150423.91;5043158;28;20033;-66
2023/05/20 03:31:58;;;;;;;1.65;1.10;;;;;;;12.50;63.97;150431.59;5040392;28;20096;-66
2023/05/20 03:34:23;;;;;;;4.65;1.50;;;;;;;12.40;64.50;150407.19;5023110;28;20037;-65
2023/05/20 03:36:50;;;;;;;3.30;1.25;;;;;;;12.52;63.65;150436.72;5023319;28;20033;-66
2023/05/20 03:39:16;;;;;;;2.90;1.20;;;;;;;12.52;64.10;150435.44;5024679;28;20037;-66
2023/05/20 03:41:42;;;;;;;3.00;1.38;;;;;;;12.52;64.65;150436.72;5034538;28;20033;-66
2023/05/20 03:44:07;;;;;;;1.27;1.17;;;;;;;12.59;64.53;150453.44;5023273;28;20084;-65
2023/05/20 03:46:33;;;;;;;2.40;1.30;;;;;;;12.68;64.06;150476.53;5023521;28;20032;-65
2023/05/20 03:49:00;;;;;;;2.38;1.40;;;;;;;12.68;63.43;150475.25;5042359;28;20029;-65
2023/05/20 03:51:26;;;;;;;2.60;1.38;;;;;;;12.66;64.03;150470.13;5028784;28;20041;-66
2023/05/20 03:53:52;;;;;;;2.03;1.33;;;;;;;12.63;64.54;150463.72;5043106;28;20084;-63
2023/05/20 03:56:18;;;;;;;1.20;1.10;;;;;;;12.68;63.97;150475.25;5037642;28;20025;-65
2023/05/20 03:58:44;;;;;;;4.03;1.17;;;;;;;12.71;64.78;150482.94;5023773;28;20314;-65
2023/05/20 04:01:12;;;;;;;2.08;1.35;;;;;;;12.67;64.78;150474.00;5025311;28;20290;-65
2023/05/20 04:03:38;;;;;;;4.60;1.30;;;;;;;12.73;65.33;150488.13;5027041;28;20026;-67
2023/05/20 04:06:03;;;;;;;2.03;1.42;;;;;;;12.75;66.16;150493.22;5034247;28;20108;-66
2023/05/20 04:08:29;;;;;;;2.88;1.30;;;;;;;12.82;65.10;150511.22;5022217;28;20307;-65
2023/05/20 04:10:55;;;;;;;2.42;1.40;;;;;;;12.87;65.58;150522.75;5024975;28;20026;-65
2023/05/20 04:13:24;;;;;;;3.67;1.60;;;;;;;12.83;65.05;150513.81;5042761;28;20038;-65
2023/05/20 04:15:51;;;;;;;3.30;1.50;;;;;;;12.88;65.25;150525.34;5011625;28;20206;-65
2023/05/20 04:18:18;;;;;;;3.53;1.27;;;;;;;12.89;64.58;150529.19;5040262;28;20139;-66
2023/05/20 04:20:45;;;;;;;2.33;1.50;;;;;;;12.99;64.09;150552.34;5038235;28;20034;-66
2023/05/20 04:23:10;;;;;;;1.42;1.10;;;;;;;13.06;64.29;150570.34;5031100;28;20092;-66
2023/05/20 04:25:36;;;;;;;3.80;1.40;;;;;;;12.98;64.72;150549.75;5046891;28;20029;-66
2023/05/20 04:28:02;;;;;;;4.22;1.52;;;;;;;13.07;63.84;150572.91;5026941;28;20022;-65
2023/05/20 04:30:27;;;;;;;2.38;1.35;;;;;;;13.01;64.95;150558.78;5041192;28;20030;-65
2023/05/20 04:32:53;;;;;;;3.58;1.35;;;;;;;13.15;63.98;150593.44;5036630;28;20034;-65
2023/05/20 04:35:19;;;;;;;2.35;1.50;;;;;;;13.26;64.82;150620.44;5031432;28;20368;-66
2023/05/20 04:37:46;;;;;;;1.88;1.20;;;;;;;13.24;63.95;150615.28;5045954;28;20064;-66
2023/05/20 04:40:13;;;;;;;1.50;1.00;;;;;;;13.19;64.38;150603.72;5026870;28;20035;-65
2023/05/20 04:42:38;;;;;;;2.17;1.30;;;;;;;13.18;64.85;150599.88;5045975;28;20245;-65
2023/05/20 04:45:05;;;;;;;3.80;1.40;;;;;;;13.12;63.76;150587.06;5034886;28;20037;-65
2023/05/20 04:47:37;;;;;;;2.67;1.38;;;;;;;13.21;64.05;150608.88;5033117;28;20114;-65
2023/05/20 04:50:11;;;;;;;4.03;1.45;;;;;;;13.36;63.46;150644.91;5043060;28;20061;-64
2023/05/20 04:52:37;;;;;;;5.60;1.23;;;;;;;13.40;63.45;150655.19;5041638;28;20097;-66
2023/05/20 04:55:09;;;;;;;2.45;1.27;;;;;;;13.50;64.38;150680.91;5026312;28;20028;-65
2023/05/20 04:57:35;;;;;;;2.10;1.10;;;;;;;13.46;62.85;150671.88;5026523;28;20029;-65
2023/05/20 05:00:01;;;;;;;2.53;1.30;;;;;;;13.56;63.59;150695.03;5036350;28;20067;-66
2023/05/20 05:02:26;;;;;;;3.35;1.38;;;;;;;13.65;63.39;150718.16;5045665;28;20068;-66
2023/05/20 05:04:52;;;;;;;1.98;1.30;;;;;;;13.60;63.05;150705.31;5044924;28;20175;-65
2023/05/20 05:07:18;;;;;;;3.63;1.40;;;;;;;13.52;62.67;150686.00;5025884;28;20048;-65
2023/05/20 05:09:43;;;;;;;2.85;1.50;;;;;;;13.62;63.71;150711.75;5025988;28;20133;-65
2023/05/20 05:12:09;;;;;;;3.40;1.52;;;;;;;13.59;63.42;150704.00;5037153;28;20325;-66
2023/05/20 05:14:35;;;;;;;2.25;1.35;;;;;;;13.76;63.62;150746.44;5037764;28;20036;-65
2023/05/20 05:17:00;;;;;;;6.30;1.35;;;;;;;13.83;62.77;150763.16;5025481;28;20046;-66
2023/05/20 05:19:26;;;;;;;1.48;1.23;;;;;;;13.80;62.39;150755.44;5024590;28;20373;-64
2023/05/20 05:21:51;;;;;;;2.22;0.90;;;;;;;13.85;63.12;150767.00;5025608;28;20050;-66
2023/05/20 05:24:17;;;;;;;3.78;1.40;;;;;;;13.69;63.04;150727.16;5038046;28;20127;-67
2023/05/20 05:26:43;;;;;;;2.55;0.98;;;;;;;13.88;62.59;150774.72;5037051;28;20025;-66
2023/05/20 05:29:08;;;;;;;7.88;1.40;;;;;;;13.93;62.94;150788.84;5025378;28;20025;-66
2023/05/20 05:31:34;;;;;;;3.03;1.42;;;;;;;13.93;62.40;150788.84;5025673;28;20025;-65
2023/05/20 05:34:00;;;;;;;4.88;1.30;;;;;;;14.03;62.18;150813.28;5043227;28;20037;-65
2023/05/20 05:36:25;;;;;;;2.78;1.40;;;;;;;13.97;62.80;150799.16;5031518;28;20029;-65
2023/05/20 05:38:51;;;;;;;1.77;1.10;;;;;;;14.11;62.70;150833.88;5013532;28;20025;-64
2023/05/20 05:41:16;;;;;;;2.78;1.30;;;;;;;14.04;62.79;150815.88;5025405;28;20238;-65
2023/05/20 05:43:42;;;;;;;4.45;1.35;;;;;;;14.09;62.47;150828.69;5025234;28;20038;-65
2023/05/20 05:46:08;;;;;;;2.00;1.45;;;;;;;14.22;62.62;150860.84;5044097;28;20199;-68
2023/05/20 05:48:35;;;;;;;2.60;1.30;;;;;;;14.01;61.75;150808.16;5030425;28;20069;-67
2023/05/20 05:51:01;;;;;;;2.45;1.60;;;;;;;14.21;61.87;150858.31;5035207;28;20021;-67
2023/05/20 05:53:27;;;;;;;2.30;1.40;;;;;;;14.37;61.13;150898.16;5045118;28;20032;-67
2023/05/20 05:55:52;;;;;;;3.28;1.50;;;;;;;14.42;61.84;150911.06;5044102;28;20095;-67
2023/05/20 05:58:18;;;;;;;4.18;1.52;;;;;;;14.44;61.38;150916.19;5007388;28;20030;-68
2023/05/20 06:00:43;;;;;;;3.53;1.60;;;;;;;14.35;60.97;150891.72;5040895;28;20025;-67
2023/05/20 06:03:09;;;;;;;2.50;1.58;;;;;;;14.36;61.25;150894.31;5033366;28;20092;-66
2023/05/20 06:05:35;;;;;;;3.00;1.48;;;;;;;14.30;60.57;150881.44;5024699;28;20041;-67
2023/05/20 06:08:00;;;;;;;2.47;1.52;;;;;;;14.57;60.44;150947.06;5032263;28;20041;-67
2023/05/20 06:10:26;;;;;;;2.53;1.33;;;;;;;14.61;60.90;150958.63;5007121;28;20033;-66
2023/05/20 06:12:52;;;;;;;2.88;1.52;;;;;;;14.50;60.71;150930.31;5041320;28;20025;-66
2023/05/20 06:15:17;;;;;;;2.60;1.92;;;;;;;14.43;60.60;150912.31;5044224;28;20167;-65
2023/05/20 06:17:43;;;;;;;5.10;1.67;;;;;;;14.69;60.70;150977.94;5037112;28;20097;-65
2023/05/20 06:20:09;;;;;;;1.33;1.23;;;;;;;14.62;60.67;150959.94;5024299;28;20234;-67
2023/05/20 06:22:35;;;;;;;4.97;1.42;;;;;;;14.70;60.15;150980.53;5024402;28;20298;-67
2023/05/20 06:25:01;;;;;;;3.72;1.50;;;;;;;14.78;59.70;150999.84;5008313;28;20372;-66
2023/05/20 06:27:27;;;;;;;4.20;1.42;;;;;;;15.01;60.29;151059.00;5030770;28;20097;-65
2023/05/20 06:29:53;;;;;;;2.75;1.45;;;;;;;14.78;58.55;150999.84;5032894;28;20322;-67
2023/05/20 06:32:18;;;;;;;2.30;1.48;;;;;;;14.99;59.12;151052.56;5047485;28;20029;-67
2023/05/20 06:34:44;;;;;;;2.80;1.63;;;;;;;15.15;58.64;151092.50;5044066;28;20037;-65
2023/05/20 06:37:10;;;;;;;4.85;1.58;;;;;;;15.10;60.29;151079.63;5023368;28;20036;-65
2023/05/20 06:39:36;;;;;;;4.72;1.35;;;;;;;15.15;58.57;151092.50;5027778;28;20322;-65
2023/05/20 06:42:02;;;;;;;3.00;1.40;;;;;;;15.29;58.40;151128.53;5015944;28;20033;-64
2023/05/20 06:44:28;;;;;;;3.88;1.40;;;;;;;15.18;56.89;151101.47;5023618;28;20042;-66
2023/05/20 06:46:53;;;;;;;2.40;1.45;;;;;;;15.13;58.24;151087.31;5006485;28;20022;-65
2023/05/20 06:49:19;;;;;;;3.47;1.40;;;;;;;15.33;58.11;151138.84;5025923;28;20318;-66
2023/05/20 06:51:45;;;;;;;5.88;1.60;;;;;;;15.27;57.50;151123.34;5043739;28;20033;-65
2023/05/20 06:54:10;;;;;;;2.58;1.60;;;;;;;15.44;58.10;151164.56;5006049;28;20385;-65
2023/05/20 06:56:36;;;;;;;5.82;1.85;;;;;;;15.53;57.00;151187.69;5023719;28;20018;-64
2023/05/20 06:59:02;;;;;;;3.22;1.60;;;;;;;15.52;56.63;151186.44;5025082;28;20030;-64
2023/05/20 07:01:27;;;;;;;5.75;1.65;;;;;;;15.49;56.67;151177.41;5043365;28;20017;-64
2023/05/20 07:03:53;;;;;;;4.63;1.65;;;;;;;15.57;56.59;151196.75;5026874;28;20088;-64
2023/05/20 07:06:18;;;;;;;4.20;1.48;;;;;;;15.60;56.08;151205.72;5023246;28;20034;-64
2023/05/20 07:08:44;;;;;;;3.13;1.77;;;;;;;15.81;56.72;151257.28;5023378;28;20273;-63
2023/05/20 07:11:09;;;;;;;2.95;1.40;;;;;;;15.60;56.35;151204.44;5024510;28;20048;-64
2023/05/20 07:13:36;;;;;;;2.17;1.33;;;;;;;15.68;56.24;151226.31;5043625;28;20245;-64
2023/05/20 07:16:02;;;;;;;3.65;1.80;;;;;;;15.70;56.67;151230.19;5025673;28;20089;-64
2023/05/20 07:18:28;;;;;;;2.67;1.30;;;;;;;15.76;56.30;151244.34;5036553;28;20044;-62
2023/05/20 07:20:55;;;;;;;2.28;1.33;;;;;;;15.77;54.87;151246.94;5043161;28;20025;-64
2023/05/20 07:23:22;;;;;;;5.60;1.77;;;;;;;15.71;54.50;151232.78;5039240;28;20195;-63
2023/05/20 07:25:48;;;;;;;1.52;1.20;;;;;;;15.80;54.66;151254.69;5023257;28;20049;-63
2023/05/20 07:28:16;;;;;;;4.82;1.55;;;;;;;15.76;55.36;151245.66;5023925;28;20037;-64
2023/05/20 07:30:48;;;;;;;4.47;1.77;;;;;;;15.84;54.64;151265.00;5022415;28;20037;-63
2023/05/20 07:33:16;;;;;;;4.72;1.17;;;;;;;15.95;53.68;151293.34;5034054;28;20310;-63
2023/05/20 07:35:42;;;;;;;2.80;1.17;;;;;;;15.93;52.67;151288.16;5018805;28;20022;-64
2023/05/20 07:38:07;;;;;;;4.68;1.50;;;;;;;16.18;52.13;151351.28;5023345;28;20025;-63
2023/05/20 07:40:33;;;;;;;5.97;1.40;;;;;;;16.17;51.22;151348.69;5035109;28;20030;-62
2023/05/20 07:42:58;;;;;;;5.82;1.60;;;;;;;16.36;50.97;151396.34;5026244;28;20029;-63
2023/05/20 07:45:24;;;;;;;6.40;1.35;;;;;;;16.46;51.25;151419.53;5035213;28;20084;-63
2023/05/20 07:47:50;;;;;;;5.35;1.60;;;;;;;16.56;50.75;151446.59;5034989;28;20033;-64
2023/05/20 07:50:15;;;;;;;3.88;1.50;;;;;;;16.50;50.82;151429.81;5023171;28;20026;-63
2023/05/20 07:52:41;;;;;;;2.38;1.42;;;;;;;16.47;50.04;151422.09;5033970;28;20033;-63
2023/05/20 07:55:07;;;;;;;2.22;1.45;;;;;;;16.55;49.79;151442.72;5043084;28;20028;-64
2023/05/20 07:57:32;;;;;;;5.90;1.38;;;;;;;16.54;49.82;151440.13;5043095;28;20330;-63
2023/05/20 07:59:58;;;;;;;2.15;1.50;;;;;;;16.34;48.78;151391.19;5034645;28;20038;-63
2023/05/20 08:02:23;;;;;;;5.30;1.60;;;;;;;16.38;48.11;151401.50;5023078;28;20026;-62
2023/05/20 08:04:49;;;;;;;5.05;2.40;;;;;;;16.38;49.40;151401.50;5023347;28;20200;-64
2023/05/20 08:07:14;;;;;;;5.63;1.40;;;;;;;16.43;49.50;151411.78;5042150;28;20072;-63
2023/05/20 08:09:40;;;;;;;1.50;1.40;;;;;;;16.34;49.35;151391.19;5022097;28;20044;-63
2023/05/20 08:12:06;;;;;;;3.72;1.50;;;;;;;16.53;49.22;151438.88;5032627;28;20021;-63
2023/05/20 08:14:31;;;;;;;1.58;1.40;;;;;;;16.32;48.47;151384.78;5043040;28;20101;-63
2023/05/20 08:16:57;;;;;;;5.88;1.20;;;;;;;16.19;50.41;151352.59;5042845;28;20204;-63
2023/05/20 08:19:23;;;;;;;3.45;1.67;;;;;;;16.35;50.74;151392.50;5023461;28;20029;-64
2023/05/20 08:21:48;;;;;;;3.78;2.13;;;;;;;16.39;50.70;151404.09;5023271;28;20266;-64
2023/05/20 08:24:14;;;;;;;3.95;1.95;;;;;;;16.44;50.77;151414.38;5033317;28;20028;-63
2023/05/20 08:26:39;;;;;;;10.18;4.43;;;;;;;16.13;48.21;151338.41;5041664;28;20028;-62
2023/05/20 08:29:07;;;;;;;6.28;1.55;;;;;;;16.13;49.09;151337.09;5041956;28;20029;-64
2023/05/20 08:31:32;;;;;;;2.38;1.98;;;;;;;16.28;49.75;151375.75;5023587;28;20045;-64
2023/05/20 08:33:58;;;;;;;2.70;1.20;;;;;;;16.29;50.67;151377.00;5023136;28;20034;-63
2023/05/20 08:36:24;;;;;;;3.33;1.63;;;;;;;16.28;49.58;151375.75;5022674;28;20069;-63
2023/05/20 08:38:49;;;;;;;5.00;2.70;;;;;;;16.33;48.93;151388.66;5029872;28;20092;-63
2023/05/20 08:41:15;;;;;;;8.10;1.67;;;;;;;16.27;49.21;151371.88;5027371;28;20022;-64
2023/05/20 08:43:41;;;;;;;4.07;1.52;;;;;;;16.28;49.85;151374.47;5042708;28;20021;-66
2023/05/20 08:46:08;;;;;;;4.25;1.40;;;;;;;16.32;50.01;151384.78;5025048;28;20038;-66
2023/05/20 08:48:34;;;;;;;1.83;1.63;;;;;;;16.54;50.12;151440.13;5035777;28;20029;-64
2023/05/20 08:51:02;;;;;;;5.80;1.70;;;;;;;16.45;49.33;151416.97;5016936;28;20060;-64
2023/05/20 08:53:28;;;;;;;4.47;1.63;;;;;;;16.43;49.67;151411.78;5039761;28;20131;-64
2023/05/20 08:55:56;;;;;;;3.72;1.50;;;;;;;16.18;48.77;151351.28;5041353;28;20025;-65
2023/05/20 08:58:23;;;;;;;2.20;1.30;;;;;;;16.36;49.89;151396.34;5021601;28;20030;-64
2023/05/20 09:00:51;;;;;;;5.43;1.55;;;;;;;16.33;50.22;151388.66;5039627;28;20021;-65
2023/05/20 09:03:19;;;;;;;3.17;1.50;;;;;;;16.44;51.07;151415.66;5035400;28;20033;-64
2023/05/20 09:05:45;;;;;;;3.17;1.65;;;;;;;16.57;50.92;151447.84;5032372;28;20105;-65
2023/05/20 09:08:11;;;;;;;4.60;1.42;;;;;;;16.60;50.09;151455.56;5044358;28;20038;-65
2023/05/20 09:10:38;;;;;;;3.33;1.70;;;;;;;16.61;49.94;151458.16;5026324;28;20306;-65
2023/05/20 09:13:06;;;;;;;3.45;1.88;;;;;;;16.74;50.51;151490.38;5043092;28;20030;-66
2023/05/20 09:15:32;;;;;;;3.05;1.90;;;;;;;16.80;49.39;151504.53;5033729;28;20037;-63
2023/05/20 09:18:00;;;;;;;5.50;1.60;;;;;;;16.56;49.05;151445.31;5033859;28;20041;-65
2023/05/20 09:20:28;;;;;;;3.33;1.70;;;;;;;16.56;48.32;151445.31;5042386;28;20191;-66
2023/05/20 09:22:58;;;;;;;2.70;1.55;;;;;;;16.59;49.04;151453.03;5025910;28;20371;-65
2023/05/20 09:25:23;;;;;;;4.03;1.60;;;;;;;16.69;48.33;151477.53;5027128;28;20040;-66
2023/05/20 09:27:49;;;;;;;6.07;2.33;;;;;;;16.72;49.63;151486.50;5030590;28;20047;-66
2023/05/20 09:30:18;;;;;;;4.40;2.40;;;;;;;16.51;49.60;151432.41;5035800;28;20075;-67
2023/05/20 09:32:44;;;;;;;5.80;1.65;;;;;;;16.46;47.84;151419.53;5040144;28;20097;-65
2023/05/20 09:35:13;;;;;;;6.22;1.88;;;;;;;16.22;47.98;151360.31;5025809;28;20053;-65
2023/05/20 09:37:41;;;;;;;4.97;1.52;;;;;;;16.31;48.19;151382.19;5025782;28;20056;-65
2023/05/20 09:40:09;;;;;;;5.13;1.98;;;;;;;16.26;49.95;151369.28;5034134;28;20396;-65
2023/05/20 09:42:49;;;;;;;2.03;1.50;;;;;;;16.19;49.67;151353.84;5038200;28;20064;-64
2023/05/20 09:45:15;;;;;;;4.00;1.80;;;;;;;16.15;49.79;151343.53;5043759;28;20029;-63
2023/05/20 09:47:42;;;;;;;11.35;2.10;;;;;;;16.18;51.14;151351.28;5039955;28;20113;-65
2023/05/20 09:50:08;;;;;;;5.10;1.88;;;;;;;16.20;50.50;151355.13;5025798;28;20045;-65
2023/05/20 09:52:38;;;;;;;5.53;2.05;;;;;;;16.21;50.99;151357.72;5045020;28;20032;-65
2023/05/20 09:55:05;;;;;;;2.92;2.40;;;;;;;16.10;51.54;151329.38;5027675;28;20029;-65
2023/05/20 09:57:34;;;;;;;2.25;1.70;;;;;;;16.11;50.60;151331.97;5033155;28;20038;-66
2023/05/20 10:00:00;;;;;;;2.03;1.60;;;;;;;16.09;48.33;151326.78;5032969;28;20071;-66
2023/05/20 10:02:27;;;;;;;5.50;2.50;;;;;;;16.16;49.15;151346.13;5041838;28;20018;-66
2023/05/20 10:04:56;;;;;;;4.05;1.92;;;;;;;16.12;49.28;151334.50;5024082;28;20334;-66
2023/05/20 10:07:42;;;;;;;3.03;1.73;;;;;;;16.00;48.13;151304.91;5025565;28;20140;-66
2023/05/20 10:10:34;;;;;;;5.18;1.63;;;;;;;15.99;48.27;151303.63;5024339;28;20056;-65
2023/05/20 10:13:09;;;;;;;3.17;1.55;;;;;;;15.76;47.69;151244.34;5026885;28;20322;-66
2023/05/20 10:15:55;;;;;;;3.40;1.70;;;;;;;16.13;47.97;151338.41;5019528;28;20025;-66
2023/05/20 10:18:41;;;;;;;9.48;3.60;;;;;;;16.21;47.47;151358.97;5034073;28;20401;-66
2023/05/20 10:21:17;;;;;;;3.10;1.45;;;;;;;16.05;48.25;151317.81;5033099;28;20030;-65
2023/05/20 10:23:43;;;;;;;3.50;1.67;;;;;;;16.21;48.50;151358.97;5039229;28;20035;-65
2023/05/20 10:26:09;;;;;;;5.78;1.90;;;;;;;16.33;48.27;151388.66;5023964;28;20022;-66
2023/05/20 10:28:36;;;;;;;8.93;2.17;;;;;;;16.47;49.00;151422.09;5044687;28;20205;-66
2023/05/20 10:31:13;;;;;;;3.45;2.00;;;;;;;16.63;48.54;151462.03;5020566;28;20064;-66
2023/05/20 10:33:43;;;;;;;11.50;5.80;;;;;;;16.46;47.79;151419.53;5037204;28;20029;-65
2023/05/20 10:36:09;;;;;;;2.03;1.83;;;;;;;16.52;48.09;151436.28;5035240;28;20037;-66
2023/05/20 10:38:36;;;;;;;4.28;1.80;;;;;;;16.42;47.37;151409.22;5010884;28;20341;-66
2023/05/20 10:41:11;;;;;;;3.70;1.65;;;;;;;16.59;48.14;151453.03;5032614;28;20022;-65
2023/05/20 10:43:37;;;;;;;3.00;1.60;;;;;;;16.65;47.77;151467.22;5024415;28;20033;-66
2023/05/20 10:46:02;;;;;;;3.53;1.55;;;;;;;16.56;48.58;151446.59;5023998;28;20041;-65
2023/05/20 10:48:30;;;;;;;6.22;2.03;;;;;;;16.55;47.06;151442.72;5034893;28;20037;-67
2023/05/20 10:50:58;;;;;;;3.35;1.70;;;;;;;16.56;48.20;151445.31;5036820;28;20026;-65
2023/05/20 10:53:26;;;;;;;3.42;1.63;;;;;;;16.44;46.73;151414.38;5018989;28;20057;-65
2023/05/20 10:55:53;;;;;;;4.22;1.90;;;;;;;16.78;47.44;151499.41;5024012;28;20052;-65
2023/05/20 10:58:23;;;;;;;4.45;1.90;;;;;;;16.87;47.32;151522.59;5041662;28;20072;-66
2023/05/20 11:00:54;;;;;;;2.97;1.70;;;;;;;16.85;46.46;151518.72;5029721;28;20039;-67
2023/05/20 11:03:21;;;;;;;4.30;2.38;;;;;;;16.77;46.84;151498.09;5033644;28;20032;-66
2023/05/20 11:05:47;;;;;;;4.13;2.75;;;;;;;16.87;46.86;151523.91;5038173;28;20045;-65
2023/05/20 11:08:13;;;;;;;6.10;3.45;;;;;;;16.82;47.48;151511.00;5024059;28;20053;-65
2023/05/20 11:10:40;;;;;;;4.20;3.30;;;;;;;16.73;48.31;151489.09;5043308;28;20029;-66
2023/05/20 11:13:07;;;;;;;4.60;2.30;;;;;;;16.70;46.53;151481.38;5027335;28;20037;-66
2023/05/20 11:15:34;;;;;;;7.10;2.55;;;;;;;16.69;47.40;151478.78;5035030;28;20029;-65
2023/05/20 11:18:03;;;;;;;5.78;2.13;;;;;;;16.54;47.24;151440.13;5036402;28;20048;-66
2023/05/20 11:20:29;;;;;;;3.97;1.85;;;;;;;16.76;47.47;151494.22;5026061;28;20227;-66
2023/05/20 11:22:55;;;;;;;3.22;2.00;;;;;;;16.73;47.34;151489.09;5043195;28;20040;-66